Terminal Aerodrome Forecast
Issued by NWS Blacksburg, VA

Home | Current Version | Previous Version | Text Only | Print | Product List | Glossary On
Versions: 1 2 3 4 5 6 7 8 9 10 11 12 13 14 15 16 17 18 19 20 21 22 23 24 25 26 27 28 29 30 31 32 33 34
000
FTUS41 KRNK 020621 AAA
TAFDAN
TAF AMD
KDAN 020621Z 0206/0306 23007KT 1/2SM FG OVC002
      TEMPO 0208/0210 1SM BR BKN004
     FM021200 25007KT 4SM BR OVC011
     FM021400 27007KT P6SM SCT015 OVC050
     FM021600 30008G16KT P6SM BKN070
     FM022100 34007KT P6SM SCT100 BKN250
     FM030200 04005KT P6SM BKN250=

USA.gov is the U.S. government's official web portal to all federal, state and local government web resources and services.